Time;durP1;ratioP1;P1;durP2;ratioP2;P2;SDS_P1;SDS_P2;PMS_P1;PMS_P2;Temp;Humidity;BMP_temperature;BMP_pressure;BME280_temperature;BME280_humidity;BME280_pressure;Samples;Min_cycle;Max_cycle;Signal;HPM_P1;HPM_P2
2023/09/24 00:01:48;;;;;;;16.60;5.88;;;;;;;-145.67;100.00;66521.78;6271683;22;20016;-88
2023/09/24 00:04:14;;;;;;;13.75;5.60;;;;;;;-145.67;100.00;66521.78;6271696;22;20012;-88
2023/09/24 00:06:39;;;;;;;14.98;6.35;;;;;;;-145.67;100.00;66521.78;6273168;22;20473;-89
2023/09/24 00:09:05;;;;;;;24.55;8.10;;;;;;;-145.67;100.00;66521.78;6272544;22;20456;-89
2023/09/24 00:11:30;;;;;;;17.58;6.30;;;;;;;-145.67;100.00;66521.78;6220906;22;20083;-87
2023/09/24 00:13:55;;;;;;;15.00;7.47;;;;;;;-145.67;100.00;66521.78;6246368;22;19999;-88
2023/09/24 00:16:21;;;;;;;18.60;7.65;;;;;;;-145.67;100.00;66521.78;6274511;22;20428;-87
2023/09/24 00:18:46;;;;;;;13.00;5.82;;;;;;;-145.67;100.00;66521.78;6246916;22;20000;-87
2023/09/24 00:21:12;;;;;;;15.57;5.47;;;;;;;-145.67;100.00;66521.78;6272399;22;20069;-87
2023/09/24 00:23:39;;;;;;;19.13;5.78;;;;;;;-145.67;100.00;66521.78;6244559;22;20012;-87
2023/09/24 00:26:05;;;;;;;18.50;6.70;;;;;;;-145.67;100.00;66521.78;6272486;22;20015;-86
2023/09/24 00:28:30;;;;;;;17.88;6.18;;;;;;;-145.67;100.00;66521.78;6243966;22;20000;-86
2023/09/24 00:30:58;;;;;;;17.85;7.50;;;;;;;-145.67;100.00;66521.78;6271611;22;20094;-87
2023/09/24 00:33:24;;;;;;;15.90;6.07;;;;;;;-145.67;100.00;66521.78;6272654;22;20061;-87
2023/09/24 00:35:50;;;;;;;18.33;6.47;;;;;;;-145.67;100.00;66521.78;6272515;22;20005;-87
2023/09/24 00:38:15;;;;;;;13.82;5.60;;;;;;;-145.67;100.00;66521.78;6245097;22;19996;-87
2023/09/24 00:40:41;;;;;;;30.30;9.57;;;;;;;-145.67;100.00;66521.78;6272583;22;20004;-86
2023/09/24 00:43:28;;;;;;;16.48;6.70;;;;;;;-145.67;100.00;66521.78;6243845;22;19995;-88
2023/09/24 00:45:57;;;;;;;20.55;7.03;;;;;;;-145.67;100.00;66521.78;6272744;22;20000;-86
2023/09/24 00:48:27;;;;;;;13.50;5.35;;;;;;;-145.67;100.00;66521.78;6271995;22;20078;-87
2023/09/24 00:50:56;;;;;;;14.05;6.15;;;;;;;-145.67;100.00;66521.78;6272694;22;20003;-87
2023/09/24 00:53:26;;;;;;;16.67;6.47;;;;;;;-145.67;100.00;66521.78;6272158;22;20006;-87
2023/09/24 00:55:53;;;;;;;18.45;5.78;;;;;;;-145.67;100.00;66521.78;6271790;22;20266;-87
2023/09/24 00:58:19;;;;;;;15.25;5.95;;;;;;;-145.67;100.00;66521.78;6272935;22;20008;-87
2023/09/24 01:00:46;;;;;;;18.60;5.75;;;;;;;-145.67;100.00;66521.78;6277311;22;20111;-86
2023/09/24 01:03:12;;;;;;;12.88;5.00;;;;;;;-145.67;100.00;66521.78;6277422;22;20008;-88
2023/09/24 01:05:38;;;;;;;12.65;4.40;;;;;;;-145.67;100.00;66521.78;6249683;22;20008;-87
2023/09/24 01:08:04;;;;;;;14.18;4.80;;;;;;;-145.67;100.00;66521.78;6272100;22;20030;-87
2023/09/24 01:10:29;;;;;;;23.02;6.70;;;;;;;-145.67;100.00;66521.78;6244449;22;20003;-87
2023/09/24 01:12:59;;;;;;;19.88;11.68;;;;;;;-145.67;100.00;66521.78;6271198;22;20446;-88
2023/09/24 01:15:25;;;;;;;15.35;4.65;;;;;;;-145.67;100.00;66521.78;6244951;22;20006;-88
2023/09/24 01:17:52;;;;;;;14.40;5.97;;;;;;;-145.67;100.00;66521.78;6219664;22;20419;-87
2023/09/24 01:20:21;;;;;;;18.38;7.10;;;;;;;-145.67;100.00;66521.78;6244812;22;20007;-88
2023/09/24 01:22:47;;;;;;;27.85;8.10;;;;;;;-145.67;100.00;66521.78;6271857;22;20004;-88
2023/09/24 01:25:12;;;;;;;21.27;6.60;;;;;;;-145.67;100.00;66521.78;6244268;22;20320;-88
2023/09/24 01:27:37;;;;;;;17.92;6.25;;;;;;;-145.67;100.00;66521.78;6270864;22;20323;-86
2023/09/24 01:30:06;;;;;;;17.75;6.18;;;;;;;-145.67;100.00;66521.78;6271494;22;20030;-88
2023/09/24 01:32:32;;;;;;;23.33;7.78;;;;;;;-145.67;100.00;66521.78;6271596;22;19996;-89
2023/09/24 01:35:03;;;;;;;23.95;8.50;;;;;;;-145.67;100.00;66521.78;6244697;22;20057;-88
2023/09/24 01:37:29;;;;;;;21.85;7.25;;;;;;;-145.67;100.00;66521.78;6245461;22;20409;-88
2023/09/24 01:39:55;;;;;;;22.73;6.65;;;;;;;-145.67;100.00;66521.78;6272048;22;20015;-88
2023/09/24 01:42:20;;;;;;;19.95;7.38;;;;;;;-145.67;100.00;66521.78;6273310;22;20387;-88
2023/09/24 01:44:46;;;;;;;14.82;5.18;;;;;;;-145.67;100.00;66521.78;6246352;22;20417;-88
2023/09/24 01:47:11;;;;;;;19.90;8.57;;;;;;;-145.67;100.00;66521.78;6247037;22;20413;-88
2023/09/24 01:49:37;;;;;;;14.25;5.13;;;;;;;-145.67;100.00;66521.78;6272872;22;20011;-88
2023/09/24 01:52:04;;;;;;;18.10;5.88;;;;;;;-145.67;100.00;66521.78;6273767;22;20050;-88
2023/09/24 01:54:30;;;;;;;12.25;4.03;;;;;;;-145.67;100.00;66521.78;6222763;22;20006;-87
2023/09/24 01:56:57;;;;;;;12.35;4.60;;;;;;;-145.67;100.00;66521.78;6248222;22;20002;-87
2023/09/24 01:59:23;;;;;;;19.58;8.00;;;;;;;-145.67;100.00;66521.78;6275240;22;20045;-88
2023/09/24 02:01:51;;;;;;;14.80;7.78;;;;;;;-145.67;100.00;66521.78;6274763;22;20011;-87
2023/09/24 02:04:16;;;;;;;16.33;7.03;;;;;;;-145.67;100.00;66521.78;6275197;22;20012;-88
2023/09/24 02:06:41;;;;;;;14.30;4.63;;;;;;;-145.67;100.00;66521.78;6273346;22;20057;-87
2023/09/24 02:09:07;;;;;;;15.80;4.20;;;;;;;-145.67;100.00;66521.78;6273275;22;20067;-87
2023/09/24 02:11:32;;;;;;;14.65;4.30;;;;;;;-145.67;100.00;66521.78;6273656;22;20006;-87
2023/09/24 02:13:58;;;;;;;13.93;4.78;;;;;;;-145.67;100.00;66521.78;6245829;22;20003;-87
2023/09/24 02:16:24;;;;;;;12.77;3.97;;;;;;;-145.67;100.00;66521.78;6247089;22;20196;-87
2023/09/24 02:18:49;;;;;;;11.95;4.32;;;;;;;-145.67;100.00;66521.78;6246230;22;20326;-87
2023/09/24 02:21:17;;;;;;;15.15;3.70;;;;;;;-145.67;100.00;66521.78;6272963;22;19999;-87
2023/09/24 02:23:43;;;;;;;9.80;3.38;;;;;;;-145.67;100.00;66521.78;6245481;22;20421;-90
2023/09/24 02:26:09;;;;;;;16.42;3.55;;;;;;;-145.67;100.00;66521.78;6220609;22;20007;-88
2023/09/24 02:28:38;;;;;;;11.38;3.50;;;;;;;-145.67;100.00;66521.78;6246047;22;20053;-87
2023/09/24 02:31:07;;;;;;;15.23;3.83;;;;;;;-145.67;100.00;66521.78;6272860;22;19996;-86
2023/09/24 02:33:34;;;;;;;18.98;6.03;;;;;;;-145.67;100.00;66521.78;6246029;22;20440;-87
2023/09/24 02:35:59;;;;;;;19.42;6.97;;;;;;;-145.67;100.00;66521.78;6272450;22;20011;-87
2023/09/24 02:38:25;;;;;;;20.40;6.97;;;;;;;-145.67;100.00;66521.78;6272543;22;20073;-88
2023/09/24 02:40:51;;;;;;;21.38;8.13;;;;;;;-145.67;100.00;66521.78;6246703;22;20012;-87
2023/09/24 02:43:16;;;;;;;22.15;8.43;;;;;;;-145.67;100.00;66521.78;6273371;22;20000;-86
2023/09/24 02:45:42;;;;;;;20.15;10.10;;;;;;;-145.67;100.00;66521.78;6273063;22;20452;-88
2023/09/24 02:48:07;;;;;;;13.98;8.07;;;;;;;-145.67;100.00;66521.78;6272645;22;20003;-88
2023/09/24 02:50:33;;;;;;;18.48;9.48;;;;;;;-145.67;100.00;66521.78;6272043;22;20014;-87
2023/09/24 02:53:02;;;;;;;25.52;9.10;;;;;;;-145.67;100.00;66521.78;6272723;22;20016;-88
2023/09/24 02:55:29;;;;;;;16.35;5.65;;;;;;;-145.67;100.00;66521.78;6246033;22;20007;-87
2023/09/24 02:57:55;;;;;;;23.20;5.57;;;;;;;-145.67;100.00;66521.78;6272994;22;20003;-87
2023/09/24 03:00:26;;;;;;;18.83;10.30;;;;;;;-145.67;100.00;66521.78;6245400;22;20026;-88
2023/09/24 03:02:53;;;;;;;27.70;16.80;;;;;;;-145.67;100.00;66521.78;6272526;22;20007;-88
2023/09/24 03:05:24;;;;;;;20.73;11.90;;;;;;;-145.67;100.00;66521.78;6271584;22;20455;-87
2023/09/24 03:07:54;;;;;;;23.27;7.82;;;;;;;-145.67;100.00;66521.78;6245660;22;20477;-87
2023/09/24 03:10:20;;;;;;;19.83;8.70;;;;;;;-145.67;100.00;66521.78;6245849;22;20011;-88
2023/09/24 03:12:46;;;;;;;22.70;8.23;;;;;;;-145.67;100.00;66521.78;6245800;22;20049;-88
2023/09/24 03:15:12;;;;;;;18.08;7.50;;;;;;;-145.67;100.00;66521.78;6220028;22;20004;-87
2023/09/24 03:17:39;;;;;;;15.00;5.20;;;;;;;-145.67;100.00;66521.78;6272632;22;19999;-89
2023/09/24 03:20:14;;;;;;;16.40;5.38;;;;;;;-145.67;100.00;66521.78;6271687;22;20027;-87
2023/09/24 03:22:46;;;;;;;17.25;5.20;;;;;;;-145.67;100.00;66521.78;6273032;22;20075;-88
2023/09/24 03:25:12;;;;;;;16.15;4.90;;;;;;;-145.67;100.00;66521.78;6273647;22;20039;-88
2023/09/24 03:27:39;;;;;;;18.77;5.30;;;;;;;-145.67;100.00;66521.78;6246233;22;20416;-88
2023/09/24 03:30:07;;;;;;;16.50;5.00;;;;;;;-145.67;100.00;66521.78;6272612;22;20000;-88
2023/09/24 03:32:34;;;;;;;17.25;4.75;;;;;;;-145.67;100.00;66521.78;6273404;22;20064;-87
2023/09/24 03:34:59;;;;;;;17.45;5.60;;;;;;;-145.67;100.00;66521.78;6272213;22;19996;-88
2023/09/24 03:37:25;;;;;;;17.40;6.57;;;;;;;-145.67;100.00;66521.78;6245328;22;20007;-88
2023/09/24 03:39:51;;;;;;;31.90;10.63;;;;;;;-145.67;100.00;66521.78;6272496;22;20083;-87
2023/09/24 03:42:16;;;;;;;17.02;6.68;;;;;;;-145.67;100.00;66521.78;6272094;22;20071;-88
2023/09/24 03:44:42;;;;;;;13.30;5.13;;;;;;;-145.67;100.00;66521.78;6273678;22;20057;-87
2023/09/24 03:47:07;;;;;;;11.63;4.78;;;;;;;-145.67;100.00;66521.78;6219745;22;20090;-88
2023/09/24 03:49:32;;;;;;;15.10;5.03;;;;;;;-145.67;100.00;66521.78;6272639;22;19991;-87
2023/09/24 03:51:58;;;;;;;12.85;5.78;;;;;;;-145.67;100.00;66521.78;6245141;22;20019;-87
2023/09/24 03:54:24;;;;;;;12.43;5.22;;;;;;;-145.67;100.00;66521.78;6271957;22;19996;-87
2023/09/24 03:56:49;;;;;;;17.30;5.10;;;;;;;-145.67;100.00;66521.78;6245505;22;20007;-87
2023/09/24 03:59:14;;;;;;;18.85;5.13;;;;;;;-145.67;100.00;66521.78;6271886;22;20018;-88
2023/09/24 04:01:40;;;;;;;15.43;4.78;;;;;;;-145.67;100.00;66521.78;6271232;22;20007;-87
2023/09/24 04:04:05;;;;;;;13.52;5.13;;;;;;;-145.67;100.00;66521.78;6273150;22;20004;-87
2023/09/24 04:06:31;;;;;;;22.52;6.93;;;;;;;-145.67;100.00;66521.78;6245470;22;20007;-88
2023/09/24 04:08:56;;;;;;;16.85;5.78;;;;;;;-145.67;100.00;66521.78;6276126;22;20027;-86
2023/09/24 04:11:22;;;;;;;13.63;4.13;;;;;;;-145.67;100.00;66521.78;6275196;22;20072;-87
2023/09/24 04:13:47;;;;;;;12.43;5.07;;;;;;;-145.67;100.00;66521.78;6273888;22;20050;-87
2023/09/24 04:16:13;;;;;;;18.40;6.15;;;;;;;-145.67;100.00;66521.78;6246798;22;20007;-88
2023/09/24 04:18:41;;;;;;;12.02;4.60;;;;;;;-145.67;100.00;66521.78;6244988;22;20004;-87
2023/09/24 04:21:18;;;;;;;10.48;3.53;;;;;;;-145.67;100.00;66521.78;6245625;22;20011;-87
2023/09/24 04:23:44;;;;;;;13.07;3.95;;;;;;;-145.67;100.00;66521.78;6220079;22;20126;-87
2023/09/24 04:26:22;;;;;;;11.85;5.85;;;;;;;-145.67;100.00;66521.78;6245755;22;20004;-87
2023/09/24 04:28:50;;;;;;;15.07;6.18;;;;;;;-145.67;100.00;66521.78;6245720;22;20019;-87
2023/09/24 04:31:16;;;;;;;19.48;5.32;;;;;;;-145.67;100.00;66521.78;6219280;22;20050;-88
2023/09/24 04:33:42;;;;;;;8.73;3.85;;;;;;;-145.67;100.00;66521.78;6244853;22;20016;-87
2023/09/24 04:36:09;;;;;;;11.82;4.45;;;;;;;-145.67;100.00;66521.78;6272150;22;20007;-88
2023/09/24 04:38:36;;;;;;;15.52;4.65;;;;;;;-145.67;100.00;66521.78;6272321;22;20010;-87
2023/09/24 04:41:01;;;;;;;16.17;4.72;;;;;;;-145.67;100.00;66521.78;6220499;22;19996;-86
2023/09/24 04:43:27;;;;;;;12.70;4.50;;;;;;;-145.67;100.00;66521.78;6271667;22;20122;-88
2023/09/24 04:45:52;;;;;;;15.02;4.10;;;;;;;-145.67;100.00;66521.78;6275231;22;20444;-88
2023/09/24 04:48:18;;;;;;;20.75;6.15;;;;;;;-145.67;100.00;66521.78;6270370;22;19996;-88
2023/09/24 04:50:43;;;;;;;13.55;5.47;;;;;;;-145.67;100.00;66521.78;6272028;22;20086;-88
2023/09/24 04:53:09;;;;;;;12.77;6.07;;;;;;;-145.67;100.00;66521.78;6244982;22;20000;-87
2023/09/24 04:55:34;;;;;;;15.70;6.45;;;;;;;-145.67;100.00;66521.78;6244068;22;19999;-85
2023/09/24 04:58:00;;;;;;;18.90;6.47;;;;;;;-145.67;100.00;66521.78;6271297;22;20324;-87
2023/09/24 05:00:26;;;;;;;16.35;7.15;;;;;;;-145.67;100.00;66521.78;6271559;22;19996;-88
2023/09/24 05:02:51;;;;;;;19.13;5.25;;;;;;;-145.67;100.00;66521.78;6271815;22;20089;-89
2023/09/24 05:05:17;;;;;;;15.45;6.05;;;;;;;-145.67;100.00;66521.78;6245167;22;20436;-87
2023/09/24 05:07:42;;;;;;;15.77;5.40;;;;;;;-145.67;100.00;66521.78;6218910;22;20011;-88
2023/09/24 05:10:09;;;;;;;16.55;5.05;;;;;;;-145.67;100.00;66521.78;6244608;22;20018;-88
2023/09/24 05:12:35;;;;;;;14.95;6.13;;;;;;;-145.67;100.00;66521.78;6244369;22;20336;-88
2023/09/24 05:15:01;;;;;;;14.10;5.20;;;;;;;-145.67;100.00;66521.78;6244454;22;20008;-86
2023/09/24 05:17:26;;;;;;;18.20;5.57;;;;;;;-145.67;100.00;66521.78;6271742;22;20001;-87
2023/09/24 05:19:52;;;;;;;12.90;4.35;;;;;;;-145.67;100.00;66521.78;6272136;22;20006;-87
2023/09/24 05:22:17;;;;;;;13.00;3.70;;;;;;;-145.67;100.00;66521.78;6272757;22;20061;-87
2023/09/24 05:24:43;;;;;;;12.48;3.63;;;;;;;-145.67;100.00;66521.78;6272153;22;20026;-88
2023/09/24 05:27:08;;;;;;;14.65;4.10;;;;;;;-145.67;100.00;66521.78;6272524;22;20008;-88
2023/09/24 05:29:34;;;;;;;14.10;5.07;;;;;;;-145.67;100.00;66521.78;6272825;22;20348;-88
2023/09/24 05:32:02;;;;;;;19.50;8.60;;;;;;;-145.67;100.00;66521.78;6243744;22;20457;-87
2023/09/24 05:34:28;;;;;;;21.33;10.23;;;;;;;-145.67;100.00;66521.78;6271378;22;20003;-87
2023/09/24 05:36:54;;;;;;;17.23;6.20;;;;;;;-145.67;100.00;66521.78;6271121;22;20074;-87
2023/09/24 05:39:19;;;;;;;19.60;5.30;;;;;;;-145.67;100.00;66521.78;6272978;22;20049;-88
2023/09/24 05:41:45;;;;;;;13.10;4.63;;;;;;;-145.67;100.00;66521.78;6271703;22;20012;-88
2023/09/24 05:44:11;;;;;;;13.10;4.25;;;;;;;-145.67;100.00;66521.78;6271064;22;20006;-87
2023/09/24 05:46:36;;;;;;;15.23;4.57;;;;;;;-145.67;100.00;66521.78;6270941;22;20000;-88
2023/09/24 05:49:04;;;;;;;16.45;5.50;;;;;;;-145.67;100.00;66521.78;6272070;22;20007;-87
2023/09/24 05:51:30;;;;;;;16.10;5.90;;;;;;;-145.67;100.00;66521.78;6272908;22;20004;-89
2023/09/24 05:53:55;;;;;;;20.80;9.80;;;;;;;-145.67;100.00;66521.78;6280611;22;20447;-89
2023/09/24 05:56:20;;;;;;;23.30;9.43;;;;;;;-145.67;100.00;66521.78;6274346;22;20003;-89
2023/09/24 05:58:46;;;;;;;21.95;10.90;;;;;;;-145.67;100.00;66521.78;6277717;22;20073;-88
2023/09/24 06:01:17;;;;;;;24.65;11.63;;;;;;;-145.67;100.00;66521.78;6271925;22;20004;-88
2023/09/24 06:03:43;;;;;;;23.88;12.35;;;;;;;-145.67;100.00;66521.78;6222151;22;20015;-88
2023/09/24 06:06:12;;;;;;;25.67;12.98;;;;;;;-145.67;100.00;66521.78;6246255;22;20154;-87
2023/09/24 06:08:37;;;;;;;27.02;13.35;;;;;;;-145.67;100.00;66521.78;6223607;22;20089;-87
2023/09/24 06:11:03;;;;;;;25.75;12.85;;;;;;;-145.67;100.00;66521.78;6248769;22;20007;-89
2023/09/24 06:13:29;;;;;;;41.47;16.33;;;;;;;-145.67;100.00;66521.78;6276314;22;20004;-89
2023/09/24 06:16:01;;;;;;;22.63;11.75;;;;;;;-145.67;100.00;66521.78;6271709;22;20766;-88
2023/09/24 06:18:27;;;;;;;22.80;12.35;;;;;;;-145.67;100.00;66521.78;6271840;22;20007;-88
2023/09/24 06:20:53;;;;;;;23.77;12.60;;;;;;;-145.67;100.00;66521.78;6272534;22;20079;-87
2023/09/24 06:23:19;;;;;;;24.23;11.95;;;;;;;-145.67;100.00;66521.78;6276315;22;19999;-88
2023/09/24 06:25:45;;;;;;;20.52;11.27;;;;;;;-145.67;100.00;66521.78;6247575;22;20019;-87
2023/09/24 06:28:10;;;;;;;23.90;12.68;;;;;;;-145.67;100.00;66521.78;6278250;22;20086;-88
2023/09/24 06:30:36;;;;;;;24.30;13.52;;;;;;;-145.67;100.00;66521.78;6276217;22;20144;-89
2023/09/24 06:33:04;;;;;;;28.58;15.82;;;;;;;-145.67;100.00;66521.78;6273781;22;20078;-88
2023/09/24 06:35:29;;;;;;;23.25;12.93;;;;;;;-145.67;100.00;66521.78;6274312;22;20081;-88
2023/09/24 06:37:55;;;;;;;26.10;11.90;;;;;;;-145.67;100.00;66521.78;6273693;22;20603;-88
2023/09/24 06:40:20;;;;;;;21.58;10.45;;;;;;;-145.67;100.00;66521.78;6272975;22;20038;-88
2023/09/24 06:42:47;;;;;;;19.75;9.30;;;;;;;-145.67;100.00;66521.78;6273478;22;20417;-88
2023/09/24 06:45:12;;;;;;;24.50;11.93;;;;;;;-145.67;100.00;66521.78;6275257;22;20000;-89
2023/09/24 06:47:38;;;;;;;21.17;9.57;;;;;;;-145.67;100.00;66521.78;6273032;22;20003;-90
2023/09/24 06:50:03;;;;;;;23.75;9.73;;;;;;;-145.67;100.00;66521.78;6246296;22;20074;-89
2023/09/24 06:52:32;;;;;;;16.48;6.88;;;;;;;-145.67;100.00;66521.78;6272997;22;20376;-88
2023/09/24 06:54:59;;;;;;;14.93;5.65;;;;;;;-145.67;100.00;66521.78;6273038;22;20041;-89
2023/09/24 06:57:24;;;;;;;13.80;5.53;;;;;;;-145.67;100.00;66521.78;6272960;22;20007;-88
2023/09/24 06:59:50;;;;;;;14.88;6.13;;;;;;;-145.67;100.00;66521.78;6272188;22;20070;-88
2023/09/24 07:02:16;;;;;;;21.33;9.05;;;;;;;-145.67;100.00;66521.78;6246105;22;20008;-89
2023/09/24 07:04:42;;;;;;;12.25;5.63;;;;;;;-145.67;100.00;66521.78;6272831;22;20008;-90
2023/09/24 07:07:08;;;;;;;9.98;4.70;;;;;;;-145.67;100.00;66521.78;6273190;22;20014;-89
2023/09/24 07:09:34;;;;;;;16.98;6.65;;;;;;;-145.67;100.00;66521.78;6246436;22;19999;-89
2023/09/24 07:11:59;;;;;;;14.45;6.53;;;;;;;-145.67;100.00;66521.78;6272115;22;20003;-90
2023/09/24 07:14:25;;;;;;;14.00;5.00;;;;;;;-145.67;100.00;66521.78;6272631;22;20023;-89
2023/09/24 07:16:50;;;;;;;14.80;5.15;;;;;;;-145.67;100.00;66521.78;6273279;22;20027;-90
2023/09/24 07:19:16;;;;;;;14.15;7.07;;;;;;;-145.67;100.00;66521.78;6273181;22;20118;-88
2023/09/24 07:21:42;;;;;;;11.63;4.97;;;;;;;-145.67;100.00;66521.78;6272210;22;20030;-89
2023/09/24 07:24:08;;;;;;;11.20;5.88;;;;;;;-145.67;100.00;66521.78;6272074;22;20035;-89
2023/09/24 07:26:33;;;;;;;13.23;6.82;;;;;;;-145.67;100.00;66521.78;6272388;22;19999;-90
2023/09/24 07:29:00;;;;;;;13.63;5.40;;;;;;;-145.67;100.00;66521.78;6272207;22;20038;-89
2023/09/24 07:31:26;;;;;;;18.80;7.13;;;;;;;-145.67;100.00;66521.78;6272240;22;20031;-89
2023/09/24 07:33:52;;;;;;;18.42;6.68;;;;;;;-145.67;100.00;66521.78;6272085;22;20084;-89
2023/09/24 07:36:18;;;;;;;8.93;4.35;;;;;;;-145.67;100.00;66521.78;6272592;22;20328;-89
2023/09/24 07:38:44;;;;;;;14.40;4.78;;;;;;;-145.67;100.00;66521.78;6246001;22;20478;-89
2023/09/24 07:41:10;;;;;;;11.07;4.57;;;;;;;-145.67;100.00;66521.78;6250645;22;20008;-90
2023/09/24 07:43:37;;;;;;;10.13;3.80;;;;;;;-145.67;100.00;66521.78;6274344;22;20006;-89
2023/09/24 07:46:06;;;;;;;10.82;4.30;;;;;;;-145.67;100.00;66521.78;6273095;22;20006;-89
2023/09/24 07:48:32;;;;;;;11.38;4.20;;;;;;;-145.67;100.00;66521.78;6273353;22;20012;-91
2023/09/24 07:50:58;;;;;;;9.77;4.03;;;;;;;-145.67;100.00;66521.78;6273938;22;20011;-89
2023/09/24 07:53:24;;;;;;;9.63;3.40;;;;;;;-145.67;100.00;66521.78;6273973;22;20368;-90
2023/09/24 07:56:06;;;;;;;8.60;3.47;;;;;;;-145.67;100.00;66521.78;6245369;22;20007;-90
2023/09/24 07:58:32;;;;;;;9.43;3.50;;;;;;;-145.67;100.00;66521.78;6274086;22;20003;-89
2023/09/24 08:01:02;;;;;;;11.48;4.40;;;;;;;-145.67;100.00;66521.78;6246193;22;20000;-90
2023/09/24 08:03:29;;;;;;;9.27;3.15;;;;;;;-145.67;100.00;66521.78;6275164;22;20037;-90
2023/09/24 08:05:54;;;;;;;7.45;3.65;;;;;;;-145.67;100.00;66521.78;6221891;22;20015;-90
2023/09/24 08:08:20;;;;;;;9.05;3.42;;;;;;;-145.67;100.00;66521.78;6248733;22;20307;-89
2023/09/24 08:10:46;;;;;;;10.82;5.82;;;;;;;-145.67;100.00;66521.78;6279363;22;20039;-89
2023/09/24 08:13:15;;;;;;;11.18;5.40;;;;;;;-145.67;100.00;66521.78;6248495;22;20003;-89
2023/09/24 08:15:40;;;;;;;10.02;4.40;;;;;;;-145.67;100.00;66521.78;6250493;22;20007;-89
2023/09/24 08:18:09;;;;;;;7.50;3.00;;;;;;;-145.67;100.00;66521.78;6269403;22;20402;-87
2023/09/24 08:20:36;;;;;;;6.50;3.22;;;;;;;-145.67;100.00;66521.78;6271701;22;20017;-88
2023/09/24 08:23:02;;;;;;;8.13;3.25;;;;;;;-145.67;100.00;66521.78;6270633;22;20000;-87
2023/09/24 08:25:27;;;;;;;5.93;3.03;;;;;;;-145.67;100.00;66521.78;6271550;22;20421;-86
2023/09/24 08:27:53;;;;;;;8.93;3.28;;;;;;;-145.67;100.00;66521.78;6245138;22;19995;-89
2023/09/24 08:30:19;;;;;;;7.10;2.75;;;;;;;-145.67;100.00;66521.78;6270955;22;20364;-90
2023/09/24 08:32:44;;;;;;;7.93;3.20;;;;;;;-145.67;100.00;66521.78;6245371;22;20003;-90
2023/09/24 08:35:10;;;;;;;9.95;3.78;;;;;;;-145.67;100.00;66521.78;6246245;22;20004;-91
2023/09/24 08:37:35;;;;;;;7.18;2.92;;;;;;;-145.67;100.00;66521.78;6280241;22;20053;-90
2023/09/24 08:40:01;;;;;;;8.70;2.90;;;;;;;-145.67;100.00;66521.78;6273768;22;20078;-90
2023/09/24 08:42:27;;;;;;;11.57;4.55;;;;;;;-145.67;100.00;66521.78;6255024;22;20006;-92
2023/09/24 08:45:06;;;;;;;9.40;4.80;;;;;;;-145.67;100.00;66521.78;6280633;22;20060;-90
2023/09/24 08:47:33;;;;;;;8.98;3.85;;;;;;;-145.67;100.00;66521.78;6273910;22;20004;-91
2023/09/24 08:50:03;;;;;;;7.45;2.88;;;;;;;-145.67;100.00;66521.78;6247209;22;20384;-91
2023/09/24 08:52:32;;;;;;;7.97;3.35;;;;;;;-145.67;100.00;66521.78;6248672;22;20019;-92
2023/09/24 08:54:59;;;;;;;7.78;3.78;;;;;;;-145.67;100.00;66521.78;6226110;22;20008;-90
2023/09/24 08:57:24;;;;;;;6.88;2.70;;;;;;;-145.67;100.00;66521.78;6276560;22;20004;-90
2023/09/24 08:59:50;;;;;;;11.93;3.88;;;;;;;-145.67;100.00;66521.78;6272838;22;20300;-92
2023/09/24 09:02:16;;;;;;;11.07;4.10;;;;;;;-145.67;100.00;66521.78;6271548;22;20004;-90
2023/09/24 09:04:51;;;;;;;8.30;3.03;;;;;;;-145.67;100.00;66521.78;6248715;22;20011;-90
2023/09/24 09:07:16;;;;;;;10.10;3.05;;;;;;;-145.67;100.00;66521.78;6272451;22;20019;-92
2023/09/24 09:09:55;;;;;;;8.85;2.70;;;;;;;-145.67;100.00;66521.78;6244612;22;20363;-91
2023/09/24 09:12:23;;;;;;;7.30;2.30;;;;;;;-145.67;100.00;66521.78;6248542;22;20061;-92
2023/09/24 09:14:48;;;;;;;7.10;2.80;;;;;;;-145.67;100.00;66521.78;6244433;22;20030;-94
2023/09/24 09:17:14;;;;;;;7.38;2.10;;;;;;;-145.67;100.00;66521.78;6244501;22;20008;-92
2023/09/24 09:19:52;;;;;;;10.55;3.90;;;;;;;-145.67;100.00;66521.78;6244623;22;20298;-92
2023/09/24 09:22:26;;;;;;;7.03;2.70;;;;;;;-145.67;100.00;66521.78;6243425;22;20130;-92
2023/09/24 09:25:06;;;;;;;10.38;3.10;;;;;;;-145.67;100.00;66521.78;6244349;22;20333;-91
2023/09/24 09:27:35;;;;;;;8.80;2.47;;;;;;;-145.67;100.00;66521.78;6221010;22;20563;-89
2023/09/24 09:30:15;;;;;;;7.32;2.45;;;;;;;-145.67;100.00;66521.78;6271905;22;20000;-91
2023/09/24 09:32:41;;;;;;;6.18;2.15;;;;;;;-145.67;100.00;66521.78;6271799;22;20014;-93
2023/09/24 09:35:07;;;;;;;8.65;2.70;;;;;;;-145.67;100.00;66521.78;6271153;22;20010;-91
2023/09/24 09:37:32;;;;;;;9.35;3.00;;;;;;;-145.67;100.00;66521.78;6243315;22;20012;-91
2023/09/24 09:39:58;;;;;;;7.97;3.08;;;;;;;-145.67;100.00;66521.78;6271020;22;20031;-91
2023/09/24 09:42:25;;;;;;;6.82;2.45;;;;;;;-145.67;100.00;66521.78;6273705;22;20409;-91
2023/09/24 09:44:54;;;;;;;9.75;3.03;;;;;;;-145.67;100.00;66521.78;6271071;22;20007;-91
2023/09/24 09:47:21;;;;;;;10.40;4.40;;;;;;;-145.67;100.00;66521.78;6270777;22;20071;-88
2023/09/24 09:49:53;;;;;;;6.03;2.88;;;;;;;-145.67;100.00;66521.78;6242934;22;20081;-87
2023/09/24 09:52:20;;;;;;;5.47;2.40;;;;;;;-145.67;100.00;66521.78;6243578;22;20048;-88
2023/09/24 09:54:48;;;;;;;17.55;6.90;;;;;;;-145.67;100.00;66521.78;6271208;22;20011;-87
2023/09/24 09:57:14;;;;;;;5.45;2.58;;;;;;;-145.67;100.00;66521.78;6271600;22;20004;-88
2023/09/24 09:59:39;;;;;;;8.35;2.38;;;;;;;-145.67;100.00;66521.78;6245007;22;20122;-90
2023/09/24 10:02:06;;;;;;;6.80;2.40;;;;;;;-145.67;100.00;66521.78;6245713;22;20086;-89
2023/09/24 10:04:32;;;;;;;18.35;6.35;;;;;;;-145.67;100.00;66521.78;6245090;22;20011;-88
2023/09/24 10:06:58;;;;;;;7.78;3.30;;;;;;;-145.67;100.00;66521.78;6245345;22;20362;-87
2023/09/24 10:09:26;;;;;;;7.10;3.80;;;;;;;-145.67;100.00;66521.78;6272503;22;20057;-88
2023/09/24 10:11:53;;;;;;;7.78;3.20;;;;;;;-145.67;100.00;66521.78;6272142;22;20016;-87
2023/09/24 10:14:32;;;;;;;7.72;3.13;;;;;;;-145.67;100.00;66521.78;6272927;22;20321;-88
2023/09/24 10:17:22;;;;;;;6.65;3.00;;;;;;;-145.67;100.00;66521.78;6272978;22;20417;-89
2023/09/24 10:19:51;;;;;;;7.18;2.80;;;;;;;-145.67;100.00;66521.78;6221271;22;20028;-89
2023/09/24 10:22:27;;;;;;;7.25;2.60;;;;;;;-145.67;100.00;66521.78;6245705;22;20010;-88
2023/09/24 10:24:52;;;;;;;6.85;2.70;;;;;;;-145.67;100.00;66521.78;6273804;22;20606;-88
2023/09/24 10:27:27;;;;;;;12.18;3.17;;;;;;;-145.67;100.00;66521.78;6271675;22;20003;-92
2023/09/24 10:29:55;;;;;;;9.25;3.78;;;;;;;-145.67;100.00;66521.78;6273134;22;19995;-86
2023/09/24 10:32:21;;;;;;;7.32;2.90;;;;;;;-145.67;100.00;66521.78;6272523;22;20012;-88
2023/09/24 10:34:55;;;;;;;7.60;2.53;;;;;;;-145.67;100.00;66521.78;6273304;22;20018;-89
2023/09/24 10:37:23;;;;;;;7.95;2.90;;;;;;;-145.67;100.00;66521.78;6272584;22;20037;-88
2023/09/24 10:39:58;;;;;;;9.63;3.13;;;;;;;-145.67;100.00;66521.78;6244756;22;20000;-88
2023/09/24 10:42:24;;;;;;;7.55;2.75;;;;;;;-145.67;100.00;66521.78;6246057;22;20022;-88
2023/09/24 10:45:08;;;;;;;7.15;2.72;;;;;;;-145.67;100.00;66521.78;6219464;22;20011;-87
2023/09/24 10:47:38;;;;;;;6.50;1.83;;;;;;;-145.67;100.00;66521.78;6271593;22;20015;-88
2023/09/24 10:50:13;;;;;;;14.27;6.95;;;;;;;-145.67;100.00;66521.78;6273457;22;20328;-88
2023/09/24 10:52:53;;;;;;;7.90;2.58;;;;;;;-145.67;100.00;66521.78;6273723;22;20091;-87
2023/09/24 10:55:19;;;;;;;5.18;2.30;;;;;;;-145.67;100.00;66521.78;6250608;22;20023;-92
2023/09/24 10:57:50;;;;;;;7.88;1.90;;;;;;;-145.67;100.00;66521.78;6281786;22;20002;-89
2023/09/24 11:00:20;;;;;;;7.35;2.50;;;;;;;-145.67;100.00;66521.78;6264345;22;20004;-89
2023/09/24 11:03:13;;;;;;;7.57;2.40;;;;;;;-145.67;100.00;66521.78;6249462;22;20008;-87